Pagrindinis puslapis
METAR-TAF:

METAR-TAF

Oro uostai :

Zagrebas, Kroatija

platuma: 45-44N, ilguma: 016-04E, Aukštis: 106 m

Dabartinis oras

Ataskaita buvo paskelbta 34 minutes, ne 03:30 UTC
Vėjas 3 kt iš Pietvakarių, svyruoja nuo Pietų ir Vakarų
Temperatūra -2°C
Drėgmė 74%
Slėgis 1032 hPa
Matomumas 10 km arba daugiau
nėra debesų žemiau 1500 m ir nėra kamuolinių lietaus debesų

METAR: LDZA 220330Z 22003KT 180V260 CAVOK M02/M06 Q1032 NOSIG

Laikas: 05:04 (04:04 UTC)

Prognozė

Ataskaita buvo paskelbta 4 valandos ir 39 minutes, ne 23:25 UTC
Prognozė galioja nuo 22 metu 00 UTC su 23 metu 00 UTC
Vėjas 2 kt nuo kintamojo kryptimis
Matomumas 10 km arba daugiau
nėra debesų žemiau 1500 m ir nėra kamuolinių lietaus debesų
Tapsmas
nuo 22 metu 08 UTC su 22 metu 10 UTC
Vėjas 6 kt iš Pietvakarių

TAF: LDZA 212325Z 2200/2300 VRB02KT CAVOK TX14/2213Z TNM03/2205Z BECMG 2208/2210 23006KT

Orai ataskaitas ir orų prognozės (METAR, TAF).

turimą stotys yra geltonos ir raudonos taškus žemėlapyje.

Perkelti pele per norėdami pamatyti stoties vardą.

Tada spustelėkite, norėdami matyti oro stebėjimo ir prognozės.

Norėdami pakeisti žemėlapį: spustelėkite ant žalios mygtukų su juodo kryžiaus žemyn,; žalią mygtuką su brūkšneliu, jei norite nutolinti; arba žalių rodyklių gretimoms žemėlapius.


METAR-TAF: